Time,TemperatureF,DewpointF,PressureIn,WindDirection,WindDirectionDegrees,WindSpeedMPH,WindSpeedGustMPH,Humidity,HourlyPrecipIn,Conditions,Clouds,dailyrainin,SoftwareType,DateUTC
2013-07-22 00:00:00,73.3,72.4,29.86,WNW,300,0.0,0.0,97,0.00,,---,0.03,VWS V14.01,2013-07-22 04:00:00,
2013-07-22 00:01:00,73.2,72.3,29.86,WNW,300,0.0,0.0,97,0.00,,---,0.00,VWS V14.01,2013-07-22 04:01:00,
2013-07-22 00:06:00,73.2,72.3,29.86,WNW,300,0.0,0.0,97,0.00,,---,0.00,VWS V14.01,2013-07-22 04:06:00,
2013-07-22 00:11:00,73.2,72.3,29.86,WNW,300,0.0,0.0,97,0.00,,---,0.00,VWS V14.01,2013-07-22 04:11:00,
2013-07-22 00:16:00,73.2,72.3,29.86,WNW,300,0.0,0.0,97,0.00,,---,0.00,VWS V14.01,2013-07-22 04:16:00,
2013-07-22 00:21:00,73.2,72.3,29.86,WNW,300,0.0,0.0,97,0.00,,---,0.00,VWS V14.01,2013-07-22 04:21:00,
2013-07-22 00:26:00,73.1,72.2,29.86,WNW,300,0.0,0.0,97,0.00,,---,0.00,VWS V14.01,2013-07-22 04:26:00,
2013-07-22 00:30:00,73.4,72.2,29.86,WNW,300,0.0,0.0,96,0.00,,---,0.03,VWS V14.01,2013-07-22 04:30:00,
2013-07-22 00:31:00,73.1,72.2,29.87,WNW,300,0.0,0.0,97,0.00,,---,0.00,VWS V14.01,2013-07-22 04:31:00,
2013-07-22 00:36:00,73.1,72.2,29.86,WNW,300,0.0,0.0,97,0.00,,---,0.00,VWS V14.01,2013-07-22 04:36:00,
2013-07-22 00:41:00,73.1,72.2,29.86,WNW,300,0.0,0.0,97,0.00,,---,0.00,VWS V14.01,2013-07-22 04:41:00,
2013-07-22 00:46:00,73.1,72.2,29.86,WNW,300,0.0,0.0,97,0.00,,---,0.00,VWS V14.01,2013-07-22 04:46:00,
2013-07-22 00:51:00,73.1,72.2,29.86,WNW,300,0.0,0.0,97,0.00,,---,0.00,VWS V14.01,2013-07-22 04:51:00,
2013-07-22 00:56:00,73.0,72.1,29.86,WNW,300,0.0,0.0,97,0.00,,---,0.00,VWS V14.01,2013-07-22 04:56:00,
2013-07-22 01:00:00,73.3,72.4,29.86,WNW,300,0.0,0.0,97,0.00,,---,0.03,VWS V14.01,2013-07-22 05:00:00,
2013-07-22 01:01:00,73.0,72.1,29.87,WNW,300,0.0,0.0,97,0.00,,---,0.00,VWS V14.01,2013-07-22 05:01:00,
2013-07-22 01:06:00,73.0,72.1,29.86,WNW,300,0.0,0.0,97,0.00,,---,0.00,VWS V14.01,2013-07-22 05:06:00,
2013-07-22 01:11:00,73.0,72.1,29.86,WNW,300,0.0,0.0,97,0.00,,---,0.00,VWS V14.01,2013-07-22 05:11:00,
2013-07-22 01:16:00,72.9,72.0,29.86,WNW,300,0.0,0.0,97,0.00,,---,0.00,VWS V14.01,2013-07-22 05:16:00,
2013-07-22 01:21:00,72.8,71.9,29.86,WNW,300,0.0,0.0,97,0.00,,---,0.00,VWS V14.01,2013-07-22 05:21:00,
2013-07-22 01:26:00,72.8,71.9,29.86,WNW,300,0.0,0.0,97,0.00,,---,0.00,VWS V14.01,2013-07-22 05:26:00,
2013-07-22 01:30:00,73.1,72.2,29.87,WNW,300,0.0,0.0,97,0.00,,---,0.00,VWS V14.01,2013-07-22 05:30:00,
2013-07-22 01:31:00,72.7,71.8,29.86,WNW,300,0.0,0.0,97,0.00,,---,0.00,VWS V14.01,2013-07-22 05:31:00,
2013-07-22 01:36:00,72.7,71.8,29.85,WNW,300,0.0,0.0,97,0.00,,---,0.00,VWS V14.01,2013-07-22 05:36:00,
2013-07-22 01:41:00,72.6,71.7,29.85,WNW,300,0.0,0.0,97,0.00,,---,0.00,VWS V14.01,2013-07-22 05:41:00,
2013-07-22 01:46:00,72.5,71.6,29.85,WNW,300,0.0,0.0,97,0.00,,---,0.00,VWS V14.01,2013-07-22 05:46:00,
2013-07-22 01:51:00,72.5,71.6,29.85,WNW,300,0.0,0.0,97,0.00,,---,0.00,VWS V14.01,2013-07-22 05:51:00,
2013-07-22 01:56:00,72.4,71.5,29.85,WNW,300,0.0,0.0,97,0.00,,---,0.00,VWS V14.01,2013-07-22 05:56:00,
2013-07-22 02:00:00,73.0,72.1,29.87,WNW,300,0.0,0.0,97,0.00,,---,0.00,VWS V14.01,2013-07-22 06:00:00,
2013-07-22 02:01:00,72.3,71.4,29.85,WNW,300,0.0,0.0,97,0.00,,---,0.00,VWS V14.01,2013-07-22 06:01:00,
2013-07-22 02:06:00,72.2,71.3,29.84,WNW,300,0.0,0.0,97,0.00,,---,0.00,VWS V14.01,2013-07-22 06:06:00,
2013-07-22 02:11:00,72.2,71.3,29.84,WNW,300,0.0,0.0,97,0.00,,---,0.00,VWS V14.01,2013-07-22 06:11:00,
2013-07-22 02:16:00,72.2,71.3,29.84,WNW,300,0.0,0.0,97,0.00,,---,0.00,VWS V14.01,2013-07-22 06:16:00,
2013-07-22 02:21:00,72.1,71.2,29.84,WNW,300,0.0,0.0,97,0.00,,---,0.00,VWS V14.01,2013-07-22 06:21:00,
2013-07-22 02:26:00,72.1,71.2,29.84,WNW,300,0.0,0.0,97,0.00,,---,0.00,VWS V14.01,2013-07-22 06:26:00,
2013-07-22 02:30:00,72.7,71.8,29.86,WNW,300,0.0,0.0,97,0.00,,---,0.00,VWS V14.01,2013-07-22 06:30:00,
2013-07-22 02:31:00,72.0,71.1,29.84,WNW,300,0.0,0.0,97,0.00,,---,0.00,VWS V14.01,2013-07-22 06:31:00,
2013-07-22 02:36:00,72.0,71.1,29.84,WNW,300,0.0,0.0,97,0.00,,---,0.00,VWS V14.01,2013-07-22 06:36:00,
2013-07-22 02:41:00,71.9,71.0,29.84,WNW,300,0.0,0.0,97,0.00,,---,0.00,VWS V14.01,2013-07-22 06:41:00,
2013-07-22 02:46:00,71.9,71.0,29.84,WNW,300,0.0,0.0,97,0.00,,---,0.00,VWS V14.01,2013-07-22 06:46:00,
2013-07-22 02:51:00,71.9,71.0,29.84,WNW,300,0.0,0.0,97,0.00,,---,0.00,VWS V14.01,2013-07-22 06:51:00,
2013-07-22 02:56:00,71.9,71.0,29.84,WNW,300,0.0,0.0,97,0.00,,---,0.00,VWS V14.01,2013-07-22 06:56:00,
2013-07-22 03:00:00,72.3,71.4,29.85,WNW,300,0.0,0.0,97,0.00,,---,0.00,VWS V14.01,2013-07-22 07:00:00,
2013-07-22 03:01:00,71.9,71.0,29.83,WNW,300,0.0,0.0,97,0.00,,---,0.00,VWS V14.01,2013-07-22 07:01:00,
2013-07-22 03:06:00,71.8,70.9,29.83,WNW,300,0.0,0.0,97,0.00,,---,0.00,VWS V14.01,2013-07-22 07:06:00,
2013-07-22 03:11:00,71.9,71.0,29.83,WNW,300,0.0,0.0,97,0.00,,---,0.00,VWS V14.01,2013-07-22 07:11:00,
2013-07-22 03:16:00,71.9,71.0,29.83,WNW,300,0.0,0.0,97,0.00,,---,0.00,VWS V14.01,2013-07-22 07:16:00,
2013-07-22 03:21:00,71.9,71.0,29.83,WNW,300,0.0,0.0,97,0.00,,---,0.00,VWS V14.01,2013-07-22 07:21:00,
2013-07-22 03:26:00,71.9,71.0,29.82,WNW,300,0.0,0.0,97,0.00,,---,0.00,VWS V14.01,2013-07-22 07:26:00,
2013-07-22 03:30:00,72.0,71.1,29.84,WNW,300,0.0,0.0,97,0.00,,---,0.00,VWS V14.01,2013-07-22 07:30:00,
2013-07-22 03:31:00,71.9,71.0,29.82,WNW,300,0.0,0.0,97,0.00,,---,0.00,VWS V14.01,2013-07-22 07:31:00,
2013-07-22 03:36:00,72.0,71.4,29.82,WNW,300,0.0,0.0,98,0.00,,---,0.00,VWS V14.01,2013-07-22 07:36:00,
2013-07-22 03:41:00,72.0,71.4,29.82,WNW,300,0.0,0.0,98,0.00,,---,0.00,VWS V14.01,2013-07-22 07:41:00,
2013-07-22 03:46:00,72.0,71.4,29.82,WNW,300,0.0,0.0,98,0.00,,---,0.00,VWS V14.01,2013-07-22 07:46:00,
2013-07-22 03:51:00,72.0,71.4,29.82,WNW,300,0.0,0.0,98,0.00,,---,0.00,VWS V14.01,2013-07-22 07:51:00,
2013-07-22 03:55:00,72.0,71.4,29.82,WNW,300,0.0,0.0,98,0.00,,---,0.00,VWS V14.01,2013-07-22 07:55:00,
2013-07-22 04:00:00,72.0,71.4,29.82,WNW,300,0.0,0.0,98,0.00,,---,0.00,VWS V14.01,2013-07-22 08:00:00,
2013-07-22 04:05:00,72.1,71.5,29.82,WNW,300,0.0,0.0,98,0.00,,---,0.00,VWS V14.01,2013-07-22 08:05:00,
2013-07-22 04:10:00,72.1,71.5,29.82,WNW,300,0.0,0.0,98,0.00,,---,0.00,VWS V14.01,2013-07-22 08:10:00,
2013-07-22 04:15:00,72.1,71.5,29.82,WNW,300,0.0,0.0,98,0.00,,---,0.00,VWS V14.01,2013-07-22 08:15:00,
2013-07-22 04:20:00,72.1,71.5,29.82,WNW,300,0.0,0.0,98,0.00,,---,0.00,VWS V14.01,2013-07-22 08:20:00,
2013-07-22 04:26:00,72.1,71.5,29.82,WNW,300,0.0,0.0,98,0.00,,---,0.00,VWS V14.01,2013-07-22 08:26:00,
2013-07-22 04:30:00,71.9,71.0,29.82,WNW,300,0.0,0.0,97,0.00,,---,0.00,VWS V14.01,2013-07-22 08:30:00,
2013-07-22 04:31:00,72.1,71.5,29.82,WNW,300,0.0,0.0,98,0.00,,---,0.00,VWS V14.01,2013-07-22 08:31:00,
2013-07-22 04:36:00,72.2,71.6,29.82,WNW,300,0.0,0.0,98,0.00,,---,0.00,VWS V14.01,2013-07-22 08:36:00,
2013-07-22 04:41:00,72.2,71.6,29.82,WNW,300,0.0,0.0,98,0.00,,---,0.00,VWS V14.01,2013-07-22 08:41:00,
2013-07-22 04:46:00,72.2,71.6,29.82,WNW,300,0.0,0.0,98,0.00,,---,0.00,VWS V14.01,2013-07-22 08:46:00,
2013-07-22 04:51:00,72.2,71.6,29.82,WNW,300,0.0,0.0,98,0.00,,---,0.00,VWS V14.01,2013-07-22 08:51:00,
2013-07-22 04:56:00,72.1,71.5,29.82,WNW,300,0.0,0.0,98,0.00,,---,0.00,VWS V14.01,2013-07-22 08:56:00,
2013-07-22 05:00:00,72.1,71.5,29.82,WNW,300,0.0,0.0,98,0.00,,---,0.00,VWS V14.01,2013-07-22 09:00:00,
2013-07-22 05:05:00,72.1,71.5,29.82,WNW,300,0.0,0.0,98,0.00,,---,0.00,VWS V14.01,2013-07-22 09:05:00,
2013-07-22 05:10:00,72.1,71.5,29.82,WNW,300,0.0,0.0,98,0.00,,---,0.00,VWS V14.01,2013-07-22 09:10:00,
2013-07-22 05:15:00,72.0,71.4,29.82,WNW,300,0.0,0.0,98,0.00,,---,0.00,VWS V14.01,2013-07-22 09:15:00,
2013-07-22 05:20:00,71.9,71.0,29.83,WNW,300,0.0,0.0,97,0.00,,---,0.00,VWS V14.01,2013-07-22 09:20:00,
2013-07-22 05:25:00,71.9,71.0,29.83,WNW,300,0.0,0.0,97,0.00,,---,0.00,VWS V14.01,2013-07-22 09:25:00,
2013-07-22 05:30:00,71.8,70.9,29.83,WNW,300,0.0,0.0,97,0.00,,---,0.00,VWS V14.01,2013-07-22 09:30:00,
2013-07-22 05:35:00,71.7,70.8,29.83,WNW,300,0.0,0.0,97,0.00,,---,0.00,VWS V14.01,2013-07-22 09:35:00,
2013-07-22 05:40:00,71.7,70.8,29.83,WNW,300,0.0,0.0,97,0.00,,---,0.00,VWS V14.01,2013-07-22 09:40:00,
2013-07-22 05:45:00,71.6,70.7,29.83,WNW,300,0.0,0.0,97,0.00,,---,0.00,VWS V14.01,2013-07-22 09:45:00,
2013-07-22 05:50:00,71.5,70.6,29.83,WNW,300,0.0,0.0,97,0.00,,---,0.00,VWS V14.01,2013-07-22 09:50:00,
2013-07-22 05:55:00,71.4,70.5,29.83,WNW,300,0.0,0.0,97,0.00,,---,0.00,VWS V14.01,2013-07-22 09:55:00,
2013-07-22 06:00:00,71.4,70.5,29.83,WNW,300,0.0,0.0,97,0.00,,---,0.00,VWS V14.01,2013-07-22 10:00:00,
2013-07-22 06:05:00,71.4,70.5,29.83,WNW,300,0.0,0.0,97,0.00,,---,0.00,VWS V14.01,2013-07-22 10:05:00,
2013-07-22 06:10:00,71.3,70.4,29.83,WNW,300,0.0,0.0,97,0.00,,---,0.00,VWS V14.01,2013-07-22 10:10:00,
2013-07-22 06:15:00,71.3,70.4,29.84,WNW,300,0.0,0.0,97,0.00,,---,0.00,VWS V14.01,2013-07-22 10:15:00,
2013-07-22 06:20:00,71.4,70.8,29.84,WNW,300,0.0,0.0,98,0.00,,---,0.00,VWS V14.01,2013-07-22 10:20:00,
2013-07-22 06:25:00,71.4,70.8,29.84,WNW,300,0.0,0.0,98,0.00,,---,0.00,VWS V14.01,2013-07-22 10:25:00,
2013-07-22 06:30:00,71.4,70.8,29.84,WNW,300,0.0,0.0,98,0.00,,---,0.00,VWS V14.01,2013-07-22 10:30:00,
2013-07-22 06:35:00,71.5,70.9,29.85,WNW,300,0.0,0.0,98,0.00,,---,0.00,VWS V14.01,2013-07-22 10:35:00,
2013-07-22 06:40:00,71.5,70.9,29.85,WNW,300,0.0,1.0,98,0.00,,---,0.00,VWS V14.01,2013-07-22 10:40:00,
2013-07-22 06:45:00,71.5,70.9,29.85,WNW,300,0.0,1.0,98,0.00,,---,0.00,VWS V14.01,2013-07-22 10:45:00,
2013-07-22 06:50:00,71.6,71.0,29.85,WNW,300,0.0,1.0,98,0.00,,---,0.00,VWS V14.01,2013-07-22 10:50:00,
2013-07-22 06:55:00,71.6,71.0,29.85,WNW,300,0.0,1.0,98,0.00,,---,0.00,VWS V14.01,2013-07-22 10:55:00,
2013-07-22 07:00:00,71.6,71.0,29.85,WNW,300,0.0,0.0,98,0.00,,---,0.00,VWS V14.01,2013-07-22 11:00:00,
2013-07-22 07:05:00,71.7,71.1,29.85,WNW,300,0.0,0.0,98,0.00,,---,0.00,VWS V14.01,2013-07-22 11:05:00,
2013-07-22 07:10:00,71.7,71.1,29.85,WNW,300,0.0,0.0,98,0.00,,---,0.00,VWS V14.01,2013-07-22 11:10:00,
2013-07-22 07:15:00,71.7,71.1,29.85,WNW,300,0.0,1.0,98,0.00,,---,0.00,VWS V14.01,2013-07-22 11:15:00,
2013-07-22 07:20:00,71.8,71.2,29.85,WNW,300,0.0,1.0,98,0.00,,---,0.00,VWS V14.01,2013-07-22 11:20:00,
2013-07-22 07:25:00,71.8,71.2,29.85,WNW,300,0.0,1.0,98,0.00,,---,0.00,VWS V14.01,2013-07-22 11:25:00,
2013-07-22 07:30:00,71.8,71.2,29.85,WNW,300,0.0,0.0,98,0.00,,---,0.00,VWS V14.01,2013-07-22 11:30:00,
2013-07-22 07:35:00,71.8,71.2,29.85,WNW,300,0.0,0.0,98,0.00,,---,0.00,VWS V14.01,2013-07-22 11:35:00,
2013-07-22 07:40:00,71.9,71.3,29.85,WNW,300,0.0,0.0,98,0.00,,---,0.00,VWS V14.01,2013-07-22 11:40:00,
2013-07-22 07:45:00,71.9,71.3,29.85,WNW,300,0.0,0.0,98,0.00,,---,0.00,VWS V14.01,2013-07-22 11:45:00,
2013-07-22 07:50:00,72.0,71.4,29.85,WNW,300,0.0,0.0,98,0.00,,---,0.00,VWS V14.01,2013-07-22 11:50:00,
2013-07-22 07:55:00,72.2,71.6,29.85,WNW,300,0.0,0.0,98,0.00,,---,0.00,VWS V14.01,2013-07-22 11:55:00,
2013-07-22 08:00:00,72.3,71.7,29.85,WNW,300,0.0,0.0,98,0.00,,---,0.00,VWS V14.01,2013-07-22 12:00:00,
2013-07-22 08:05:00,72.4,71.8,29.86,WNW,300,0.0,0.0,98,0.00,,---,0.00,VWS V14.01,2013-07-22 12:05:00,
2013-07-22 08:10:00,72.6,72.3,29.86,WNW,300,0.0,0.0,99,0.00,,---,0.00,VWS V14.01,2013-07-22 12:10:00,
2013-07-22 08:15:00,72.7,72.4,29.86,WNW,300,0.0,0.0,99,0.00,,---,0.00,VWS V14.01,2013-07-22 12:15:00,
2013-07-22 08:20:00,72.9,72.6,29.86,WNW,300,0.0,0.0,99,0.00,,---,0.00,VWS V14.01,2013-07-22 12:20:00,
2013-07-22 08:25:00,73.2,72.9,29.86,WNW,300,0.0,0.0,99,0.00,,---,0.00,VWS V14.01,2013-07-22 12:25:00,
2013-07-22 08:30:00,73.4,73.1,29.86,WNW,300,0.0,0.0,99,0.00,,---,0.00,VWS V14.01,2013-07-22 12:30:00,
2013-07-22 08:35:00,73.7,73.4,29.86,WNW,300,0.0,1.0,99,0.00,,---,0.00,VWS V14.01,2013-07-22 12:35:00,
2013-07-22 08:40:00,73.8,73.5,29.86,WNW,300,0.0,1.0,99,0.00,,---,0.00,VWS V14.01,2013-07-22 12:40:00,
2013-07-22 08:45:00,73.9,73.6,29.86,WNW,300,0.0,3.0,99,0.00,,---,0.00,VWS V14.01,2013-07-22 12:45:00,
2013-07-22 08:50:00,74.0,73.4,29.86,North,11,0.0,3.0,98,0.00,,---,0.00,VWS V14.01,2013-07-22 12:50:00,
2013-07-22 08:55:00,74.2,73.6,29.86,North,11,0.0,3.0,98,0.00,,---,0.00,VWS V14.01,2013-07-22 12:55:00,
2013-07-22 09:00:00,74.4,73.8,29.86,NW,312,0.0,0.0,98,0.00,,---,0.00,VWS V14.01,2013-07-22 13:00:00,
2013-07-22 09:05:00,74.6,74.0,29.86,NW,308,0.0,3.0,98,0.00,,---,0.00,VWS V14.01,2013-07-22 13:05:00,
2013-07-22 09:10:00,74.8,73.9,29.86,NW,308,0.0,3.0,97,0.00,,---,0.00,VWS V14.01,2013-07-22 13:10:00,
2013-07-22 09:15:00,75.0,74.1,29.86,NW,308,0.0,3.0,97,0.00,,---,0.00,VWS V14.01,2013-07-22 13:15:00,
2013-07-22 09:20:00,75.1,73.9,29.86,NW,308,1.0,3.0,96,0.00,,---,0.00,VWS V14.01,2013-07-22 13:20:00,
2013-07-22 09:25:00,75.2,74.0,29.86,NW,308,0.0,3.0,96,0.00,,---,0.00,VWS V14.01,2013-07-22 13:25:00,
2013-07-22 09:30:00,75.4,73.9,29.86,NW,308,1.0,1.0,95,0.00,,---,0.00,VWS V14.01,2013-07-22 13:30:00,
2013-07-22 09:35:00,75.5,74.0,29.86,NW,308,1.0,3.0,95,0.00,,---,0.00,VWS V14.01,2013-07-22 13:35:00,
2013-07-22 09:40:00,75.5,73.7,29.86,NW,308,0.0,3.0,94,0.00,,---,0.00,VWS V14.01,2013-07-22 13:40:00,
2013-07-22 09:45:00,75.6,73.8,29.86,NW,308,0.0,3.0,94,0.00,,---,0.00,VWS V14.01,2013-07-22 13:45:00,
2013-07-22 09:50:00,75.7,73.8,29.86,NW,308,1.0,3.0,94,0.00,,---,0.00,VWS V14.01,2013-07-22 13:50:00,
2013-07-22 09:55:00,75.7,73.8,29.86,NW,306,0.0,3.0,94,0.00,,---,0.00,VWS V14.01,2013-07-22 13:55:00,
2013-07-22 10:00:00,75.8,73.9,29.86,NW,306,0.0,1.0,94,0.00,,---,0.00,VWS V14.01,2013-07-22 14:00:00,
2013-07-22 10:05:00,75.8,73.9,29.86,NW,306,1.0,2.0,94,0.00,,---,0.00,VWS V14.01,2013-07-22 14:05:00,
2013-07-22 10:10:00,75.9,74.1,29.86,NW,306,1.0,2.0,94,0.00,,---,0.00,VWS V14.01,2013-07-22 14:10:00,
2013-07-22 10:15:00,76.0,74.2,29.86,WNW,298,3.0,3.0,94,0.00,,---,0.00,VWS V14.01,2013-07-22 14:15:00,
2013-07-22 10:20:00,76.0,74.2,29.86,NNW,341,1.0,3.0,94,0.00,,---,0.00,VWS V14.01,2013-07-22 14:20:00,
2013-07-22 10:25:00,76.1,73.9,29.86,NW,305,2.0,3.0,93,0.00,,---,0.00,VWS V14.01,2013-07-22 14:25:00,
2013-07-22 10:30:00,76.3,74.1,29.86,NW,305,1.0,3.0,93,0.00,,---,0.00,VWS V14.01,2013-07-22 14:30:00,
2013-07-22 10:35:00,76.4,74.2,29.86,WNW,295,0.0,4.0,93,0.00,,---,0.00,VWS V14.01,2013-07-22 14:35:00,
2013-07-22 10:40:00,76.5,74.7,29.86,WNW,295,0.0,4.0,94,0.00,,---,0.00,VWS V14.01,2013-07-22 14:40:00,
2013-07-22 10:45:00,76.6,74.4,29.86,West,279,2.0,5.0,93,0.00,,---,0.00,VWS V14.01,2013-07-22 14:45:00,
2013-07-22 10:50:00,76.7,74.5,29.86,WNW,292,0.0,5.0,93,0.00,,---,0.00,VWS V14.01,2013-07-22 14:50:00,
2013-07-22 10:55:00,76.7,73.9,29.86,WNW,297,3.0,5.0,91,0.00,,---,0.00,VWS V14.01,2013-07-22 14:55:00,
2013-07-22 11:00:00,76.7,73.9,29.86,WNW,297,1.0,1.0,91,0.00,,---,0.00,VWS V14.01,2013-07-22 15:00:00,
2013-07-22 11:05:00,76.7,74.2,29.86,WNW,297,0.0,3.0,92,0.00,,---,0.00,VWS V14.01,2013-07-22 15:05:00,
2013-07-22 11:10:00,76.8,74.3,29.86,WNW,297,0.0,3.0,92,0.00,,---,0.00,VWS V14.01,2013-07-22 15:10:00,
2013-07-22 11:15:00,77.0,74.5,29.86,WNW,297,0.0,3.0,92,0.00,,---,0.00,VWS V14.01,2013-07-22 15:15:00,
2013-07-22 11:20:00,77.1,74.3,29.86,West,275,5.0,5.0,91,0.00,,---,0.00,VWS V14.01,2013-07-22 15:20:00,
2013-07-22 11:25:00,77.1,74.3,29.86,West,271,1.0,5.0,91,0.00,,---,0.00,VWS V14.01,2013-07-22 15:25:00,
2013-07-22 11:30:00,77.2,74.7,29.86,West,271,0.0,5.0,92,0.00,,---,0.00,VWS V14.01,2013-07-22 15:30:00,
2013-07-22 11:35:00,77.2,74.4,29.86,WNW,292,2.0,5.0,91,0.00,,---,0.00,VWS V14.01,2013-07-22 15:35:00,
2013-07-22 11:40:00,77.3,74.5,29.86,WNW,297,2.0,5.0,91,0.00,,---,0.00,VWS V14.01,2013-07-22 15:40:00,
2013-07-22 11:45:00,77.2,74.4,29.86,WNW,285,0.0,5.0,91,0.00,,---,0.00,VWS V14.01,2013-07-22 15:45:00,
2013-07-22 11:50:00,77.2,74.7,29.86,WNW,285,0.0,5.0,92,0.00,,---,0.00,VWS V14.01,2013-07-22 15:50:00,
2013-07-22 11:55:00,77.5,75.0,29.86,WNW,285,0.0,5.0,92,0.00,,---,0.00,VWS V14.01,2013-07-22 15:55:00,
2013-07-22 12:00:00,77.6,75.1,29.86,WNW,285,0.0,5.0,92,0.00,,---,0.00,VWS V14.01,2013-07-22 16:00:00,
2013-07-22 12:05:00,77.8,75.3,29.86,WNW,285,0.0,3.0,92,0.00,,---,0.00,VWS V14.01,2013-07-22 16:05:00,
2013-07-22 12:10:00,77.9,75.1,29.86,WNW,285,0.0,3.0,91,0.00,,---,0.00,VWS V14.01,2013-07-22 16:10:00,
2013-07-22 12:15:00,78.1,74.9,29.86,WNW,285,2.0,3.0,90,0.00,,---,0.00,VWS V14.01,2013-07-22 16:15:00,
2013-07-22 12:20:00,78.3,75.5,29.86,WNW,294,1.0,4.0,91,0.00,,---,0.00,VWS V14.01,2013-07-22 16:20:00,
2013-07-22 12:25:00,78.7,75.9,29.86,WNW,294,0.0,4.0,91,0.00,,---,0.00,VWS V14.01,2013-07-22 16:25:00,
2013-07-22 12:30:00,79.0,75.5,29.86,WNW,290,0.0,4.0,89,0.00,,---,0.00,VWS V14.01,2013-07-22 16:30:00,
2013-07-22 12:35:00,79.2,75.7,29.85,WNW,293,2.0,3.0,89,0.00,,---,0.00,VWS V14.01,2013-07-22 16:35:00,
2013-07-22 12:40:00,79.4,75.9,29.85,WNW,300,0.0,4.0,89,0.00,,---,0.00,VWS V14.01,2013-07-22 16:40:00,
2013-07-22 12:45:00,79.6,75.1,29.85,WNW,285,3.0,4.0,86,0.00,,---,0.00,VWS V14.01,2013-07-22 16:45:00,
2013-07-22 12:50:00,79.8,75.6,29.85,WNW,282,1.0,7.0,87,0.00,,---,0.00,VWS V14.01,2013-07-22 16:50:00,
2013-07-22 12:55:00,80.1,76.2,29.85,WNW,293,2.0,7.0,88,0.00,,---,0.00,VWS V14.01,2013-07-22 16:55:00,
2013-07-22 13:00:00,80.3,75.7,29.85,West,281,0.0,7.0,86,0.00,,---,0.00,VWS V14.01,2013-07-22 17:00:00,
2013-07-22 13:05:00,80.7,76.5,29.85,West,280,1.0,3.0,87,0.00,,---,0.00,VWS V14.01,2013-07-22 17:05:00,
2013-07-22 13:10:00,81.0,76.1,29.84,West,281,0.0,4.0,85,0.00,,---,0.00,VWS V14.01,2013-07-22 17:10:00,
2013-07-22 13:15:00,81.4,76.5,29.84,WNW,297,3.0,4.0,85,0.00,,---,0.00,VWS V14.01,2013-07-22 17:15:00,
2013-07-22 13:20:00,81.9,76.2,29.84,WNW,293,1.0,4.0,83,0.00,,---,0.00,VWS V14.01,2013-07-22 17:20:00,
2013-07-22 13:25:00,82.2,76.5,29.84,WNW,298,1.0,4.0,83,0.00,,---,0.00,VWS V14.01,2013-07-22 17:25:00,
2013-07-22 13:30:00,82.5,76.8,29.83,WNW,298,0.0,4.0,83,0.00,,---,0.00,VWS V14.01,2013-07-22 17:30:00,
2013-07-22 13:35:00,82.8,77.8,29.83,WNW,298,0.0,0.0,85,0.00,,---,0.00,VWS V14.01,2013-07-22 17:35:00,
2013-07-22 13:40:00,82.9,76.8,29.83,WNW,289,0.0,4.0,82,0.00,,---,0.00,VWS V14.01,2013-07-22 17:40:00,
2013-07-22 13:45:00,83.2,77.5,29.83,WNW,289,0.0,4.0,83,0.00,,---,0.00,VWS V14.01,2013-07-22 17:45:00,
2013-07-22 13:50:00,83.4,78.1,29.83,WNW,289,0.0,4.0,84,0.00,,---,0.00,VWS V14.01,2013-07-22 17:50:00,
2013-07-22 13:55:00,83.9,77.4,29.82,WNW,289,0.0,4.0,81,0.00,,---,0.00,VWS V14.01,2013-07-22 17:55:00,
2013-07-22 14:00:00,84.5,77.3,29.82,WNW,289,2.0,2.0,79,0.00,,---,0.00,VWS V14.01,2013-07-22 18:00:00,
2013-07-22 14:05:00,84.6,77.4,29.82,WNW,285,1.0,4.0,79,0.00,,---,0.00,VWS V14.01,2013-07-22 18:05:00,
2013-07-22 14:10:00,84.4,77.2,29.82,WNW,285,3.0,4.0,79,0.00,,---,0.00,VWS V14.01,2013-07-22 18:10:00,
2013-07-22 14:16:00,84.3,76.7,29.82,WNW,288,4.0,4.0,78,0.00,,---,0.00,VWS V14.01,2013-07-22 18:16:00,
2013-07-22 14:20:00,83.9,76.7,29.82,West,279,0.0,4.0,79,0.00,,---,0.00,VWS V14.01,2013-07-22 18:20:00,
2013-07-22 14:26:00,84.1,78.0,29.82,West,279,0.0,4.0,82,0.00,,---,0.00,VWS V14.01,2013-07-22 18:26:00,
2013-07-22 14:30:00,82.5,76.8,29.83,WNW,298,0.0,4.0,83,0.00,,---,0.00,VWS V14.01,2013-07-22 18:30:00,
2013-07-22 14:31:00,84.5,76.9,29.81,West,279,1.0,1.0,78,0.00,,---,0.00,VWS V14.01,2013-07-22 18:31:00,
2013-07-22 14:36:00,84.5,77.3,29.81,West,279,1.0,1.0,79,0.00,,---,0.00,VWS V14.01,2013-07-22 18:36:00,
2013-07-22 14:42:00,84.5,78.0,29.81,West,279,0.0,2.0,81,0.00,,---,0.00,VWS V14.01,2013-07-22 18:42:00,
2013-07-22 14:47:00,84.7,78.6,29.81,West,278,2.0,3.0,82,0.00,,---,0.00,VWS V14.01,2013-07-22 18:47:00,
2013-07-22 14:52:00,85.1,77.1,29.80,West,267,4.0,8.0,77,0.00,,---,0.00,VWS V14.01,2013-07-22 18:52:00,
2013-07-22 14:57:00,85.3,77.7,29.80,West,267,0.0,8.0,78,0.00,,---,0.00,VWS V14.01,2013-07-22 18:57:00,
2013-07-22 15:00:00,84.5,77.3,29.82,WNW,289,1.0,4.0,79,0.00,,---,0.00,VWS V14.01,2013-07-22 19:00:00,
2013-07-22 15:02:00,85.4,78.2,29.80,WNW,290,3.0,4.0,79,0.00,,---,0.00,VWS V14.01,2013-07-22 19:02:00,
2013-07-22 15:07:00,85.7,78.1,29.80,WNW,292,2.0,4.0,78,0.00,,---,0.00,VWS V14.01,2013-07-22 19:07:00,
2013-07-22 15:13:00,85.9,77.5,29.79,West,273,3.0,8.0,76,0.00,,---,0.00,VWS V14.01,2013-07-22 19:13:00,
2013-07-22 15:18:00,85.9,78.2,29.79,West,272,0.0,8.0,78,0.00,,---,0.00,VWS V14.01,2013-07-22 19:18:00,
2013-07-22 15:23:00,86.1,77.2,29.79,WNW,299,6.0,8.0,75,0.00,,---,0.00,VWS V14.01,2013-07-22 19:23:00,
2013-07-22 15:28:00,86.5,78.4,29.79,West,278,4.0,8.0,77,0.00,,---,0.00,VWS V14.01,2013-07-22 19:28:00,
2013-07-22 15:30:00,84.5,77.7,29.82,West,279,1.0,4.0,80,0.00,,---,0.00,VWS V14.01,2013-07-22 19:30:00,
2013-07-22 15:33:00,86.9,77.6,29.79,WNW,287,3.0,5.0,74,0.00,,---,0.00,VWS V14.01,2013-07-22 19:33:00,
2013-07-22 15:38:00,87.1,77.0,29.79,WNW,288,2.0,6.0,72,0.00,,---,0.00,VWS V14.01,2013-07-22 19:38:00,
2013-07-22 15:43:00,87.3,77.2,29.78,WNW,294,1.0,6.0,72,0.00,,---,0.00,VWS V14.01,2013-07-22 19:43:00,
2013-07-22 15:48:00,87.4,77.7,29.78,NW,315,2.0,6.0,73,0.00,,---,0.00,VWS V14.01,2013-07-22 19:48:00,
2013-07-22 15:53:00,87.5,77.4,29.78,West,263,1.0,6.0,72,0.00,,---,0.00,VWS V14.01,2013-07-22 19:53:00,
2013-07-22 15:58:00,87.7,78.0,29.78,West,279,3.0,6.0,73,0.00,,---,0.00,VWS V14.01,2013-07-22 19:58:00,
2013-07-22 16:00:00,85.4,77.0,29.80,West,276,2.0,8.0,76,0.00,,---,0.00,VWS V14.01,2013-07-22 20:00:00,
2013-07-22 16:03:00,87.8,78.1,29.77,WNW,282,1.0,4.0,73,0.00,,---,0.00,VWS V14.01,2013-07-22 20:03:00,
2013-07-22 16:08:00,88.1,78.8,29.77,NW,317,2.0,4.0,74,0.00,,---,0.00,VWS V14.01,2013-07-22 20:08:00,
2013-07-22 16:13:00,88.3,76.4,29.77,WNW,286,2.0,5.0,68,0.00,,---,0.00,VWS V14.01,2013-07-22 20:13:00,
2013-07-22 16:16:00,88.2,77.2,29.77,WNW,286,1.0,5.0,70,0.00,,---,0.00,VWS V14.01,2013-07-22 20:16:00,
2013-07-22 16:17:00,88.2,77.2,29.77,WNW,286,2.0,5.0,70,0.00,,---,0.00,VWS V14.01,2013-07-22 20:17:00,
2013-07-22 16:22:00,88.3,76.4,29.77,WNW,291,3.0,5.0,68,0.00,,---,0.00,VWS V14.01,2013-07-22 20:22:00,
2013-07-22 16:27:00,88.1,77.5,29.77,West,279,0.0,5.0,71,0.00,,---,0.00,VWS V14.01,2013-07-22 20:27:00,
2013-07-22 16:30:00,86.7,77.0,29.79,West,277,1.0,8.0,73,0.00,,---,0.00,VWS V14.01,2013-07-22 20:30:00,
2013-07-22 16:32:00,88.2,77.6,29.77,West,280,2.0,4.0,71,0.00,,---,0.00,VWS V14.01,2013-07-22 20:32:00,
2013-07-22 16:37:00,88.2,75.9,29.77,WNW,283,2.0,7.0,67,0.00,,---,0.00,VWS V14.01,2013-07-22 20:37:00,
2013-07-22 16:42:00,88.3,78.1,29.77,WNW,283,1.0,7.0,72,0.00,,---,0.00,VWS V14.01,2013-07-22 20:42:00,
2013-07-22 16:43:00,88.3,77.3,29.77,WNW,283,0.0,7.0,70,0.00,,---,0.00,VWS V14.01,2013-07-22 20:43:00,
2013-07-22 16:48:00,88.3,77.3,29.76,WNW,300,0.0,7.0,70,0.00,,---,0.00,VWS V14.01,2013-07-22 20:48:00,
2013-07-22 16:53:00,88.3,76.8,29.76,East,82,1.0,7.0,69,0.00,,---,0.00,VWS V14.01,2013-07-22 20:53:00,
2013-07-22 16:58:00,88.3,76.8,29.76,West,279,1.0,7.0,69,0.00,,---,0.00,VWS V14.01,2013-07-22 20:58:00,
2013-07-22 17:00:00,87.7,78.0,29.77,WNW,283,0.0,6.0,73,0.00,,---,0.00,VWS V14.01,2013-07-22 21:00:00,
2013-07-22 17:03:00,88.3,77.7,29.76,WNW,297,1.0,3.0,71,0.00,,---,0.00,VWS V14.01,2013-07-22 21:03:00,
2013-07-22 17:08:00,88.3,76.8,29.76,NW,304,1.0,4.0,69,0.00,,---,0.00,VWS V14.01,2013-07-22 21:08:00,
2013-07-22 17:13:00,88.3,78.6,29.76,WNW,303,3.0,4.0,73,0.00,,---,0.00,VWS V14.01,2013-07-22 21:13:00,
2013-07-22 17:18:00,88.1,76.7,29.76,WNW,292,3.0,6.0,69,0.00,,---,0.00,VWS V14.01,2013-07-22 21:18:00,
2013-07-22 17:23:00,87.9,76.5,29.75,WNW,291,1.0,6.0,69,0.00,,---,0.00,VWS V14.01,2013-07-22 21:23:00,
2013-07-22 17:28:00,87.7,76.7,29.75,WNW,292,2.0,6.0,70,0.00,,---,0.00,VWS V14.01,2013-07-22 21:28:00,
2013-07-22 17:30:00,88.2,77.6,29.77,West,279,0.0,5.0,71,0.00,,---,0.00,VWS V14.01,2013-07-22 21:30:00,
2013-07-22 17:33:00,87.5,76.5,29.75,WNW,286,3.0,4.0,70,0.00,,---,0.00,VWS V14.01,2013-07-22 21:33:00,
2013-07-22 17:38:00,87.3,76.3,29.75,WNW,296,2.0,6.0,70,0.00,,---,0.00,VWS V14.01,2013-07-22 21:38:00,
2013-07-22 17:43:00,87.2,76.7,29.75,WNW,301,0.0,6.0,71,0.00,,---,0.00,VWS V14.01,2013-07-22 21:43:00,
2013-07-22 17:48:00,87.2,77.1,29.75,West,271,4.0,6.0,72,0.00,,---,0.00,VWS V14.01,2013-07-22 21:48:00,
2013-07-22 17:53:00,86.9,76.4,29.74,WNW,292,3.0,6.0,71,0.00,,---,0.00,VWS V14.01,2013-07-22 21:53:00,
2013-07-22 17:57:00,86.6,76.5,29.74,West,263,4.0,6.0,72,0.00,,---,0.00,VWS V14.01,2013-07-22 21:57:00,
2013-07-22 18:00:00,88.3,76.8,29.76,WNW,292,2.0,7.0,69,0.00,,---,0.00,VWS V14.01,2013-07-22 22:00:00,
2013-07-22 18:02:00,86.3,76.2,29.74,WNW,287,0.0,6.0,72,0.00,,---,0.00,VWS V14.01,2013-07-22 22:02:00,
2013-07-22 18:07:00,86.0,76.3,29.74,WNW,292,3.0,7.0,73,0.00,,---,0.00,VWS V14.01,2013-07-22 22:07:00,
2013-07-22 18:12:00,85.6,76.4,29.74,WNW,287,2.0,7.0,74,0.00,,---,0.00,VWS V14.01,2013-07-22 22:12:00,
2013-07-22 18:17:00,85.2,76.0,29.74,WNW,290,1.0,7.0,74,0.00,,---,0.00,VWS V14.01,2013-07-22 22:17:00,
2013-07-22 18:22:00,85.1,77.1,29.74,NW,315,1.0,7.0,77,0.00,,---,0.00,VWS V14.01,2013-07-22 22:22:00,
2013-07-22 18:27:00,85.0,76.6,29.74,WNW,303,2.0,7.0,76,0.00,,---,0.00,VWS V14.01,2013-07-22 22:27:00,
2013-07-22 18:30:00,87.6,76.2,29.75,WNW,303,3.0,6.0,69,0.00,,---,0.00,VWS V14.01,2013-07-22 22:30:00,
2013-07-22 18:32:00,85.0,77.0,29.74,WNW,302,2.0,3.0,77,0.00,,---,0.00,VWS V14.01,2013-07-22 22:32:00,
2013-07-22 18:37:00,85.1,77.1,29.74,West,281,1.0,5.0,77,0.00,,---,0.00,VWS V14.01,2013-07-22 22:37:00,
2013-07-22 18:43:00,85.2,77.2,29.75,West,281,2.0,5.0,77,0.00,,---,0.00,VWS V14.01,2013-07-22 22:43:00,
2013-07-22 18:48:00,85.1,75.9,29.75,WNW,283,0.0,5.0,74,0.00,,---,0.00,VWS V14.01,2013-07-22 22:48:00,
2013-07-22 18:53:00,85.0,76.2,29.75,WNW,287,2.0,5.0,75,0.00,,---,0.00,VWS V14.01,2013-07-22 22:53:00,
2013-07-22 18:58:00,84.8,76.4,29.75,NW,304,0.0,5.0,76,0.00,,---,0.00,VWS V14.01,2013-07-22 22:58:00,
2013-07-22 19:00:00,86.5,76.4,29.74,WSW,258,3.0,6.0,72,0.00,,---,0.00,VWS V14.01,2013-07-22 23:00:00,
2013-07-22 19:03:00,84.6,76.2,29.75,NW,308,1.0,4.0,76,0.00,,---,0.00,VWS V14.01,2013-07-22 23:03:00,
2013-07-22 19:08:00,84.3,75.9,29.75,West,267,2.0,5.0,76,0.00,,---,0.00,VWS V14.01,2013-07-22 23:08:00,
2013-07-22 19:13:00,83.9,75.5,29.75,WNW,289,2.0,5.0,76,0.00,,---,0.00,VWS V14.01,2013-07-22 23:13:00,
2013-07-22 19:17:00,83.6,75.6,29.75,WNW,288,1.0,5.0,77,0.00,,---,0.00,VWS V14.01,2013-07-22 23:17:00,
2013-07-22 19:22:00,83.3,75.3,29.75,WNW,301,2.0,5.0,77,0.00,,---,0.00,VWS V14.01,2013-07-22 23:22:00,
2013-07-22 19:27:00,83.0,75.4,29.75,NNW,343,1.0,5.0,78,0.00,,---,0.00,VWS V14.01,2013-07-22 23:27:00,
2013-07-22 19:30:00,85.0,77.0,29.74,WNW,302,1.0,7.0,77,0.00,,---,0.00,VWS V14.01,2013-07-22 23:30:00,
2013-07-22 19:32:00,82.7,75.5,29.74,NNW,328,0.0,1.0,79,0.00,,---,0.00,VWS V14.01,2013-07-22 23:32:00,
2013-07-22 19:37:00,82.4,75.6,29.74,NE,40,1.0,2.0,80,0.00,,---,0.00,VWS V14.01,2013-07-22 23:37:00,
2013-07-22 19:42:00,82.0,75.2,29.74,WNW,294,1.0,2.0,80,0.00,,---,0.00,VWS V14.01,2013-07-22 23:42:00,
2013-07-22 19:47:00,81.8,75.4,29.75,WNW,294,0.0,2.0,81,0.00,,---,0.00,VWS V14.01,2013-07-22 23:47:00,
2013-07-22 19:52:00,81.6,75.6,29.75,WNW,294,0.0,2.0,82,0.00,,---,0.00,VWS V14.01,2013-07-22 23:52:00,
2013-07-22 19:57:00,81.4,75.7,29.75,WNW,294,0.0,2.0,83,0.00,,---,0.00,VWS V14.01,2013-07-22 23:57:00,
2013-07-22 20:00:00,84.7,75.9,29.75,WNW,294,2.0,5.0,75,0.00,,---,0.00,VWS V14.01,2013-07-23 00:00:00,
2013-07-22 20:02:00,81.2,75.9,29.75,WNW,294,0.0,0.0,84,0.00,,---,0.00,VWS V14.01,2013-07-23 00:02:00,
2013-07-22 20:07:00,80.9,76.0,29.75,WNW,294,0.0,0.0,85,0.00,,---,0.00,VWS V14.01,2013-07-23 00:07:00,
2013-07-22 20:12:00,80.6,75.7,29.75,WNW,294,0.0,0.0,85,0.00,,---,0.00,VWS V14.01,2013-07-23 00:12:00,
2013-07-22 20:17:00,80.3,75.7,29.74,WNW,294,0.0,0.0,86,0.00,,---,0.00,VWS V14.01,2013-07-23 00:17:00,
2013-07-22 20:22:00,80.0,75.4,29.74,WNW,294,0.0,0.0,86,0.00,,---,0.00,VWS V14.01,2013-07-23 00:22:00,
2013-07-22 20:27:00,79.8,75.6,29.74,WNW,294,0.0,0.0,87,0.00,,---,0.00,VWS V14.01,2013-07-23 00:27:00,
2013-07-22 20:30:00,82.8,75.2,29.74,WNW,289,0.0,5.0,78,0.00,,---,0.00,VWS V14.01,2013-07-23 00:30:00,
2013-07-22 20:32:00,79.6,75.4,29.74,WNW,294,0.0,0.0,87,0.00,,---,0.00,VWS V14.01,2013-07-23 00:32:00,
2013-07-22 20:37:00,79.3,75.4,29.74,WNW,294,0.0,0.0,88,0.00,,---,0.00,VWS V14.01,2013-07-23 00:37:00,
2013-07-22 20:42:00,79.1,75.2,29.74,WNW,294,0.0,0.0,88,0.00,,---,0.00,VWS V14.01,2013-07-23 00:42:00,
2013-07-22 20:47:00,78.7,75.2,29.75,WNW,294,0.0,0.0,89,0.00,,---,0.00,VWS V14.01,2013-07-23 00:47:00,
2013-07-22 20:52:00,78.5,75.0,29.74,WNW,294,0.0,0.0,89,0.00,,---,0.00,VWS V14.01,2013-07-23 00:52:00,
2013-07-22 21:00:00,78.2,74.7,29.74,North,0,0.0,0.0,89,0.00,,---,0.00,VWS V14.01,2013-07-23 01:00:00,
2013-07-22 21:30:00,77.0,74.2,29.75,North,0,0.0,0.0,91,0.00,,---,0.00,VWS V14.01,2013-07-23 01:30:00,
2013-07-22 22:00:00,76.1,73.6,29.76,North,0,0.0,0.0,92,0.00,,---,0.00,VWS V14.01,2013-07-23 02:00:00,
2013-07-22 22:30:00,75.4,73.2,29.77,North,0,0.0,0.0,93,0.00,,---,0.00,VWS V14.01,2013-07-23 02:30:00,
2013-07-22 23:00:00,74.8,73.0,29.77,North,0,0.0,0.0,94,0.00,,---,0.00,VWS V14.01,2013-07-23 03:00:00,
2013-07-22 23:30:00,74.6,73.1,29.77,WNW,292,0.0,1.0,95,0.00,,---,0.00,VWS V14.01,2013-07-23 03:30:00,